Tiempo atmosférico en la estación meteorológica de Muñotello, Ávila (1178 m.)



Fecha
DESCASC
Temp. máxima en grados centígrados (hora)
DESCASC
Temp. mínima en grados centígrados (hora)
DESCASC
Temp. media en grados centígrados
DESCASC
Racha de viento máxima en m/sg (hora)
DESCASC
Velocidad máxima media en intervalos de 10 minutos(hora)
DESCASC
Precipitaciones diarias en mm
DESCASC
Precipitaciones de 00:00 a 06:00 en mm
DESCASC
Precipitaciones de 06:00 a 12:00 en mm
DESCASC
Precipitaciones de 12:00 a 18:00 en mm
DESCASC
Precipitaciones de 18:00 a 24:00 en mm
DESCASC
30-11-2020 12.1 (16:40) 3.8 (23:40) 8 10 (03:00) 5.83 (03:10) 0 0 0 0 0
29-11-2020 10.4 (16:10) 3.8 (00:00) 7.1 10.56 (02:40) 6.11 (04:40) 0 0 0 0 0
28-11-2020 10.1 (12:40) 2.8 (00:00) 6.5 9.17 (18:50) 6.11 (18:50) 0 0 0 0 0
27-11-2020 7.9 (11:40) 5.6 (00:00) 6.8 12.22 (13:10) 7.22 (13:10) 1.6 1.4 0.2 0 0
26-11-2020 7.5 (00:00) 5.4 (00:00) 6.5 18.06 (08:20) 10.56 (08:30) 31.8 4 7.2 9.6 11
25-11-2020 8.2 (11:10) -0.2 (00:00) 4 21.39 (18:20) 13.06 (22:50) 1 0 0 0.6 0.4
24-11-2020 12.7 (14:50) 1.8 (00:00) 7.2 3.89 (17:30) 2.5 (17:30) 0 0 0 0 0
23-11-2020 15.4 (15:00) 3 (00:00) 9.2 3.89 (17:30) 2.5 (17:30) 0 0 0 0 0
22-11-2020 15.5 (15:10) 2.9 (00:00) 9.2 3.33 (16:50) 2.78 (20:40) 0 0 0 0 0
21-11-2020 16 (12:40) 2.6 (00:00) 9.3 3.33 (04:40) 2.5 (04:40) 0 0 0 0 0
20-11-2020 14 (14:50) 3.3 (00:00) 8.6 5 (13:10) 3.06 (13:10) 0 0 0 0 0
19-11-2020 17.7 (15:40) 7.4 (00:00) 12.6 3.61 (13:20) 2.78 (04:50) 0 0 0 0 0
18-11-2020 20.4 (15:20) 6.9 (00:00) 13.6 6.39 (15:40) 4.17 (14:30) 0 0 0 0 0
17-11-2020 19.8 (15:10) 4.7 (00:00) 12.2 5.28 (16:00) 3.33 (16:10) 0 0 0 0 0
16-11-2020 16.3 (15:20) 7.1 (00:00) 11.7 9.72 (00:10) 5 (00:10) 0 0 0 0 0
15-11-2020 17 (13:50) 6.7 (00:00) 11.8 15.56 (20:10) 9.44 (20:10) 0 0 0 0 0
14-11-2020 14.3 (15:30) 7 (00:00) 10.7 8.33 (20:40) 5.28 (20:40) 0.8 0 0.8 0 0
13-11-2020 11.4 (16:10) 5.2 (00:00) 8.3 4.17 (15:50) 2.78 (14:50) 0 0 0 0 0
12-11-2020 13.9 (16:00) 5.4 (00:00) 9.6 4.44 (16:20) 2.5 (16:50) 0 0 0 0 0
11-11-2020 14.8 (15:10) 1.2 (00:00) 8 5.56 (16:10) 3.61 (16:00) 0 0 0 0 0
10-11-2020 13.8 (14:50) 3.6 (00:00) 8.7 3.61 (04:40) 3.06 (05:00) 0 0 0 0 0
09-11-2020 13 (14:40) 5.6 (00:00) 9.3 13.33 (00:40) 7.5 (00:40) 1.2 1 0.2 0 0
08-11-2020 12.8 (14:10) 6.1 (00:00) 9.5 16.94 (10:30) 10.56 (10:20) 0.4 0 0 0 0.4
07-11-2020 12.5 (14:10) 6.1 (00:00) 9.3 20.28 (02:20) 12.5 (02:20) 3.6 3.2 0.4 0 0
06-11-2020 14.4 (15:40) 8.7 (00:00) 11.5 19.17 (19:10) 11.94 (23:50) 11.6 0.8 1 0.2 9.6
05-11-2020 10.5 (23:59) 6.9 (00:00) 8.7 17.5 (10:00) 8.89 (09:30) 34.2 5.4 16.4 4.6 7.8
04-11-2020 7.2 (23:20) 3.5 (00:00) 5.3 14.44 (23:00) 9.44 (23:00) 11 0.2 1.8 7.6 1.4
03-11-2020 12.5 (02:00) 7 (00:00) 9.8 7.22 (06:40) 5.28 (06:50) 0 0 0 0 0
02-11-2020 15.4 (15:50) 9.3 (00:00) 12.3 2.5 (02:00) 1.67 (04:30) 0 0 0 0 0

Gráficas

Temp. máximas Temp. mínimas Temp. medias Precipitaciones Rachas de viento máximas Velocidades máximas media en intervalos de 10 minutos

Datos horarios

Fecha y hora oficial Temperatura (ºC) Velocidad del viento (km/h) Dirección del viento Racha (km/h) Dirección de racha Precipitación (mm) Presión (hPa) Tendencia (hPa) Humedad (%)
2020-12-01 23:00:00 4.4 2 Sudeste 12 Sudoeste 0 -- -- 66
2020-12-01 22:00:00 5.3 9 Sur 13 Sur 0 -- -- 62
2020-12-01 21:00:00 5.8 8 Sur 13 Sur 0 -- -- 59
2020-12-01 20:00:00 5.6 3 Oeste 13 Sur 0 -- -- 54
2020-12-01 19:00:00 6.3 7 Sur 14 Sur 0 -- -- 49
2020-12-01 18:00:00 7.2 7 Sur 12 Sur 0 -- -- 52
2020-12-01 17:00:00 9.3 9 Norte 14 Norte 0 -- -- 51
2020-12-01 16:00:00 11.4 4 Nordeste 13 Norte 0 -- -- 43
2020-12-01 15:00:00 12.3 9 Nordeste 17 Nordeste 0 -- -- 58
2020-12-01 14:00:00 13 7 Nordeste 13 Nordeste 0 -- -- 57
2020-12-01 13:00:00 12.6 2 Nordeste 8 Este 0 -- -- 60
2020-12-01 12:00:00 10.6 3 Nordeste 6 Nordeste 0 -- -- 72
2020-12-01 11:00:00 9.3 2 Nordeste 6 Sur 0 -- -- 75
2020-12-01 10:00:00 6.6 2 Sudeste 10 Sudoeste 0 -- -- 73
2020-12-01 09:00:00 2.8 5 Oeste 10 Norte 0 -- -- 81
2020-12-01 08:00:00 4.4 6 Sudoeste 9 Sur 0 -- -- 78
2020-12-01 07:00:00 3.9 3 Sur 6 Sur 0 -- -- 81
2020-12-01 06:00:00 4.2 6 Sudoeste 12 Sur 0 -- -- 78
2020-12-01 05:00:00 4.5 0 Calma 10 Sur 0 -- -- 77
2020-12-01 04:00:00 4.5 4 Oeste 14 Sur 0 -- -- 82
2020-12-01 03:00:00 4.1 2 Sur 9 Sudoeste 0 -- -- 81
2020-12-01 02:00:00 3.1 7 Sudoeste 13 Sur 0 -- -- 87
2020-12-01 01:00:00 3.8 5 Oeste 10 Sur 0 -- -- 83
2020-12-01 00:00:00 4.4 9 Sur 13 Sur 0 -- -- 81
2020-11-30 23:00:00 5 4 Sur 10 Sur 0 -- -- 83
2020-11-30 22:00:00 5.7 0 Calma 10 Sur 0 -- -- 83
2020-11-30 21:00:00 6.4 8 Sur 10 Sur 0 -- -- 79
2020-11-30 20:00:00 7.3 6 Sur 11 Sur 0 -- -- 77
2020-11-30 19:00:00 7.6 3 Sur 15 Sur 0 -- -- 76
2020-11-30 18:00:00 9.1 8 Sur 15 Sudoeste 0 -- -- 73
2020-11-30 17:00:00 10.8 10 Sur 12 Sur 0 -- -- 70
2020-11-30 16:00:00 11.8 4 Nordeste 10 Nordeste 0 -- -- 65
2020-11-30 15:00:00 11.4 3 Noroeste 8 Norte 0 -- -- 69
2020-11-30 14:00:00 10.1 2 Norte 6 Este 0 -- -- 70
2020-11-30 13:00:00 10 3 Este 9 Este 0 -- -- 71
2020-11-30 12:00:00 8 0 Calma 5 Norte 0 -- -- 75
2020-11-30 11:00:00 6.8 3 Oeste 7 Sudoeste 0 -- -- 84
2020-11-30 10:00:00 5.3 6 Sur 9 Sur 0 -- -- 86
2020-11-30 09:00:00 4.6 5 Oeste 9 Sur 0 -- -- 85
2020-11-30 08:00:00 4.9 3 Sur 9 Sur 0 -- -- 86
2020-11-30 07:00:00 5.1 5 Oeste 7 Oeste 0 -- -- 84
2020-11-30 06:00:00 5.5 4 Este 16 Este 0 -- -- 83
2020-11-30 05:00:00 6.8 10 Este 19 Este 0 -- -- 79
2020-11-30 04:00:00 8.5 8 Nordeste 33 Sudeste 0 -- -- 72
2020-11-30 03:00:00 8 11 Sudeste 36 Sudeste 0 -- -- 73
2020-11-30 02:00:00 8.3 11 Nordeste 29 Nordeste 0 -- -- 74
2020-11-30 01:00:00 7.8 8 Nordeste 32 Este 0 -- -- 76
2020-11-30 00:00:00 7.5 8 Este 32 Este 0 -- -- 80
2020-11-29 23:00:00 7.7 18 Sudeste 32 Sudeste 0 -- -- 80
2020-11-29 22:00:00 6.6 2 Este 16 Este 0 -- -- 86
2020-11-29 21:00:00 6.5 11 Este 15 Este 0 -- -- 89
2020-11-29 20:00:00 6 0 Calma 10 Nordeste 0 -- -- 89
2020-11-29 19:00:00 7.4 13 Sudeste 28 Sudeste 0 -- -- 80
2020-11-29 18:00:00 7.8 18 Sudeste 28 Este 0 -- -- 81
2020-11-29 17:00:00 8.9 13 Sudeste 24 Sudeste 0 -- -- 76
2020-11-29 16:00:00 10.3 10 Este 23 Este 0 -- -- 76
2020-11-29 15:00:00 9.2 8 Este 20 Este 0 -- -- 78
2020-11-29 14:00:00 8.3 6 Este 22 Este 0 -- -- 84
2020-11-29 13:00:00 7.8 4 Este 14 Sudeste 0 -- -- 81
2020-11-29 12:00:00 7.6 9 Este 18 Este 0 -- -- 81
2020-11-29 11:00:00 7.5 7 Sudeste 25 Este 0 -- -- 80
2020-11-29 10:00:00 6.4 18 Este 35 Este 0 -- -- 82
2020-11-29 09:00:00 5.5 14 Este 30 Este 0 -- -- 85
2020-11-29 08:00:00 5.7 14 Sudeste 23 Sudeste 0 -- -- 84
2020-11-29 07:00:00 4 2 Este 14 Nordeste 0 -- -- 89
2020-11-29 06:00:00 5 8 Este 26 Sudeste 0 -- -- 83
2020-11-29 05:00:00 5.9 13 Sudeste 31 Sudeste 0 -- -- 79
2020-11-29 04:00:00 5.9 12 Este 27 Sudoeste 0 -- -- 81
2020-11-29 03:00:00 6.5 8 Sudoeste 38 Sur 0 -- -- 75
2020-11-29 02:00:00 4.4 5 Noroeste 14 Norte 0 -- -- 84
2020-11-29 01:00:00 5.6 12 Sudoeste 27 Sur 0 -- -- 79
2020-11-29 00:00:00 4.9 6 Este 30 Sudeste 0 -- -- 82
2020-11-28 23:00:00 4 10 Oeste 20 Oeste 0 -- -- 87
2020-11-28 22:00:00 4.4 6 Noroeste 18 Oeste 0 -- -- 85
2020-11-28 21:00:00 6.1 3 Sur 22 Sudeste 0 -- -- 77
2020-11-28 20:00:00 6.6 10 Sur 31 Sur 0 -- -- 78
2020-11-28 19:00:00 6.6 21 Sur 33 Sur 0 -- -- 82
2020-11-28 18:00:00 7 16 Sur 31 Sur 0 -- -- 81
2020-11-28 17:00:00 8.2 9 Este 17 Este 0 -- -- 78
2020-11-28 16:00:00 8.8 5 Oeste 22 Oeste 0 -- -- 73
2020-11-28 15:00:00 8.8 13 Oeste 21 Oeste 0 -- -- 69
2020-11-28 14:00:00 9.2 8 Oeste 14 Oeste 0 -- -- 72
2020-11-28 13:00:00 9.4 6 Sudeste 12 Sudeste 0 -- -- 72
2020-11-28 12:00:00 8.1 2 Norte 5 Noroeste 0 -- -- 78
2020-11-28 11:00:00 6.9 0 Calma 4 Este 0 -- -- 85
2020-11-28 10:00:00 5.8 3 Este 8 Sur 0 -- -- 87
2020-11-28 09:00:00 3.8 5 Sudoeste 11 Sudoeste 0 -- -- 91
2020-11-28 08:00:00 3.6 3 Sudoeste 6 Sur 0 -- -- 90
2020-11-28 07:00:00 3.9 2 Sur 17 Oeste 0 -- -- 89
2020-11-28 06:00:00 5 2 Sudeste 10 Sur 0 -- -- 89
2020-11-28 05:00:00 5.4 4 Sudoeste 9 Sudoeste 0 -- -- 87
2020-11-28 04:00:00 6.1 7 Sudoeste 10 Sudoeste 0 -- -- 86
2020-11-28 03:00:00 5.9 8 Oeste 9 Oeste 0 -- -- 88
2020-11-28 02:00:00 5.6 3 Sudoeste 7 Sudeste 0 -- -- 87
2020-11-28 01:00:00 6.1 2 Este 8 Sudeste 0 -- -- 88
2020-11-28 00:00:00 6 0 Calma 4 Sudeste 0 -- -- 90
2020-11-27 23:00:00 5.9 3 Sudeste 6 Sudeste 0 -- -- 92
2020-11-27 22:00:00 6 3 Sudeste 6 Sudeste 0 -- -- 91
2020-11-27 21:00:00 6.1 3 Este 9 Sudeste 0 -- -- 90
2020-11-27 20:00:00 6.1 2 Este 10 Nordeste 0 -- -- 90
2020-11-27 19:00:00 6.4 5 Este 31 Este 0 -- -- 87
2020-11-27 18:00:00 6.8 21 Este 33 Este 0 -- -- 84
2020-11-27 17:00:00 6.9 12 Nordeste 24 Este 0 -- -- 84
2020-11-27 16:00:00 6.9 10 Este 25 Este 0 -- -- 83
2020-11-27 15:00:00 7.1 16 Este 40 Este 0 -- -- 82
2020-11-27 14:00:00 7.3 18 Este 44 Este 0 -- -- 82
2020-11-27 13:00:00 7.9 21 Este 41 Este 0 -- -- 79
2020-11-27 12:00:00 7.9 17 Este 31 Este 0 -- -- 87
2020-11-27 11:00:00 7.2 6 Este 14 Sudeste 0 -- -- 87
2020-11-27 10:00:00 6.5 10 Sudeste 21 Este 0 -- -- 86
2020-11-27 09:00:00 6.4 3 Este 12 Este 0 -- -- 89
2020-11-27 08:00:00 6.3 3 Nordeste 10 Este 0.2 -- -- 92
2020-11-27 07:00:00 6.1 4 Sudeste 10 Este 0 -- -- 93
2020-11-27 06:00:00 6.1 5 Este 11 Este 0 -- -- 92
2020-11-27 05:00:00 6.3 7 Este 14 Este 0 -- -- 92
2020-11-27 04:00:00 6.2 4 Oeste 10 Sudoeste 0.4 -- -- 92
2020-11-27 03:00:00 6.2 6 Oeste 8 Oeste 0.2 -- -- 91
2020-11-27 02:00:00 6 5 Oeste 10 Oeste 0.2 -- -- 89
2020-11-27 01:00:00 6.1 7 Sur 18 Sudeste 0.6 -- -- 89
2020-11-27 00:00:00 5.6 10 Sudeste 15 Sudeste 1 -- -- 94
2020-11-26 23:00:00 5.9 0 Calma 36 Este 1.2 -- -- 90
2020-11-26 22:00:00 6.7 12 Sudeste 39 Sudeste 0.6 -- -- 87
2020-11-26 21:00:00 6.5 15 Sudeste 30 Sudeste 0.2 -- -- 88
2020-11-26 20:00:00 5.8 0 Calma 26 Este 1.4 -- -- 91
2020-11-26 19:00:00 5.5 13 Sudeste 56 Sur 6.6 -- -- 88
2020-11-26 18:00:00 6.9 5 Este 17 Sudeste 3.6 -- -- 94
2020-11-26 17:00:00 6.8 11 Sudeste 32 Este 2.4 -- -- 92
2020-11-26 16:00:00 7.2 18 Este 41 Este 1 -- -- 87
2020-11-26 15:00:00 6.9 17 Este 32 Este 1.2 -- -- 87
2020-11-26 14:00:00 6.8 15 Este 55 Este 0.8 -- -- 87
2020-11-26 13:00:00 7.3 23 Este 43 Sudeste 0.6 -- -- 85
2020-11-26 12:00:00 7.1 24 Este 37 Sudeste 0.2 -- -- 86
2020-11-26 11:00:00 6.4 14 Este 30 Este 0 -- -- 84
2020-11-26 10:00:00 5.8 16 Este 46 Este 0.6 -- -- 86
2020-11-26 09:00:00 6 26 Este 65 Sudeste 1.2 -- -- 83
2020-11-26 08:00:00 6 34 Sudeste 50 Sudeste 3.8 -- -- 84
2020-11-26 07:00:00 6.7 33 Sudeste 56 Sudeste 1.4 -- -- 85
2020-11-26 06:00:00 7.1 32 Este 57 Este 1 -- -- 85
2020-11-26 05:00:00 7.3 25 Sudeste 49 Sudeste 0.6 -- -- 84
2020-11-26 04:00:00 6.3 11 Sudeste 48 Este 0.8 -- -- 86
2020-11-26 03:00:00 6.5 21 Sudeste 54 Sudeste 1.2 -- -- 81
2020-11-26 02:00:00 7.3 34 Sudeste 53 Este 0.2 -- -- 82
2020-11-26 01:00:00 7.1 22 Este 41 Este 0.2 -- -- 83
2020-11-26 00:00:00 7.5 29 Sudeste 70 Sudeste 0.2 -- -- 82
2020-11-25 23:00:00 7.6 43 Sur 74 Sudeste 0 -- -- 84
2020-11-25 22:00:00 8.1 24 Sudeste 62 Sudeste 0 -- -- 81
2020-11-25 21:00:00 7.6 21 Sudeste 58 Sudeste 0 -- -- 82
2020-11-25 20:00:00 7.3 14 Este 47 Este 0 -- -- 82
2020-11-25 19:00:00 7.6 17 Este 77 Sur 0.2 -- -- 80
2020-11-25 18:00:00 7.3 29 Sudeste 58 Sudeste 0.2 -- -- 78
2020-11-25 17:00:00 6.9 29 Este 46 Este 0.4 -- -- 84
2020-11-25 16:00:00 7.3 24 Este 44 Este 0 -- -- 83
2020-11-25 15:00:00 7.1 25 Este 45 Sudeste 0 -- -- 84
2020-11-25 14:00:00 7.1 17 Este 44 Este 0 -- -- 82
2020-11-25 13:00:00 7.3 9 Sur 33 Nordeste 0 -- -- 76
2020-11-25 12:00:00 7.6 15 Sudeste 61 Sur 0 -- -- 81
2020-11-25 11:00:00 7.4 26 Sur 55 Sur 0 -- -- 79
2020-11-25 10:00:00 7.4 24 Sur 45 Sur 0 -- -- 76
2020-11-25 09:00:00 1.7 7 Noroeste 15 Noroeste 0 -- -- 88
2020-11-25 08:00:00 1.5 6 Oeste 17 Noroeste 0 -- -- 90
2020-11-25 07:00:00 0.8 6 Sudoeste 10 Oeste 0 -- -- 92
2020-11-25 06:00:00 0.9 8 Sur 10 Sur 0 -- -- 92
2020-11-25 05:00:00 -0.2 0 Calma 7 Oeste 0 -- -- 91
2020-11-25 04:00:00 0.9 2 Noroeste 6 Sur 0 -- -- 91
2020-11-25 03:00:00 1.5 2 Oeste 8 Oeste 0 -- -- 86
2020-11-25 02:00:00 1.2 6 Oeste 9 Oeste 0 -- -- 91
2020-11-25 01:00:00 2.8 2 Sudoeste 8 Sudoeste 0 -- -- 85
2020-11-25 00:00:00 2.4 7 Sudoeste 10 Sudoeste 0 -- -- 90
2020-11-24 23:00:00 3.3 2 Sur 8 Sur 0 -- -- 85
2020-11-24 22:00:00 3.5 4 Sudoeste 11 Oeste 0 -- -- 87
2020-11-24 21:00:00 4.4 0 Calma 5 Sur 0 -- -- 82
2020-11-24 20:00:00 5.8 3 Oeste 10 Oeste 0 -- -- 76
2020-11-24 19:00:00 7.4 6 Sur 10 Sur 0 -- -- 70
2020-11-24 18:00:00 9.2 7 Sudeste 14 Este 0 -- -- 65
2020-11-24 17:00:00 11.3 5 Este 10 Nordeste 0 -- -- 59
2020-11-24 16:00:00 11.9 7 Este 12 Nordeste 0 -- -- 54
2020-11-24 15:00:00 12.6 4 Nordeste 9 Nordeste 0 -- -- 50
2020-11-24 14:00:00 12.5 3 Norte 9 Este 0 -- -- 46
2020-11-24 13:00:00 11 0 Calma 5 Norte 0 -- -- 52
2020-11-24 12:00:00 9.9 0 Calma 5 Noroeste 0 -- -- 59
2020-11-24 11:00:00 6.1 0 Calma 3 Norte 0 -- -- 73
2020-11-24 10:00:00 4 0 Calma 6 Sur 0 -- -- 76
2020-11-24 09:00:00 2.5 3 Sur 9 Sur 0 -- -- 78
2020-11-24 08:00:00 3.4 8 Sur 10 Sur 0 -- -- 75
2020-11-24 07:00:00 2 0 Calma 9 Sur 0 -- -- 80
2020-11-24 06:00:00 3.6 2 Sur 9 Sur 0 -- -- 73
2020-11-24 05:00:00 3.2 2 Sudoeste 6 Sur 0 -- -- 76
2020-11-24 04:00:00 2.8 0 Calma 7 Sur 0 -- -- 78
2020-11-24 03:00:00 4.8 7 Sur 9 Sur 0 -- -- 69
2020-11-24 02:00:00 3.8 0 Calma 4 Sur 0 -- -- 74
2020-11-24 01:00:00 4.1 0 Calma 5 Sur 0 -- -- 72
2020-11-24 00:00:00 5.3 2 Sudoeste 12 Sur 0 -- -- 66
2020-11-23 23:00:00 6.4 2 Sur 10 Sur 0 -- -- 63
2020-11-23 22:00:00 6.3 6 Sur 10 Sur 0 -- -- 64
2020-11-23 21:00:00 6.9 3 Sur 6 Sur 0 -- -- 64
2020-11-23 20:00:00 7.5 4 Oeste 10 Sur 0 -- -- 65
2020-11-23 19:00:00 9.3 5 Sur 14 Oeste 0 -- -- 58
2020-11-23 18:00:00 10.4 9 Oeste 14 Sudoeste 0 -- -- 55
2020-11-23 17:00:00 13.4 7 Sur 9 Sudoeste 0 -- -- 43
2020-11-23 16:00:00 15.2 4 Nordeste 9 Nordeste 0 -- -- 33
2020-11-23 15:00:00 15.4 4 Nordeste 8 Nordeste 0 -- -- 28
2020-11-23 14:00:00 14.9 3 Nordeste 6 Nordeste 0 -- -- 29
2020-11-23 13:00:00 14 0 Calma 3 Nordeste 0 -- -- 28
2020-11-23 12:00:00 12.1 0 Calma 4 Noroeste 0 -- -- 49
2020-11-23 11:00:00 10 0 Calma 5 Norte 0 -- -- 57
2020-11-23 10:00:00 6.5 0 Calma 5 Sur 0 -- -- 68
2020-11-23 09:00:00 4.9 3 Sudeste 5 Sur 0 -- -- 67
2020-11-23 08:00:00 3.5 0 Calma 8 Sur 0 -- -- 64
2020-11-23 07:00:00 3 0 Calma 6 Sur 0 -- -- 64
2020-11-23 06:00:00 4.1 0 Calma 5 Sur 0 -- -- 61
2020-11-23 05:00:00 3.9 3 Oeste 4 Oeste 0 -- -- 62
2020-11-23 04:00:00 4.1 0 Calma 6 Sur 0 -- -- 65
2020-11-23 03:00:00 5.1 3 Oeste 9 Sur 0 -- -- 62
2020-11-23 02:00:00 4.7 0 Calma 5 Sudoeste 0 -- -- 62
2020-11-23 01:00:00 4.7 0 Calma 6 Sur 0 -- -- 60
2020-11-23 00:00:00 6.2 6 Sur 9 Sur 0 -- -- 52
2020-11-22 23:00:00 5.7 4 Sudoeste 8 Sur 0 -- -- 59
2020-11-22 22:00:00 6.9 8 Sur 11 Sur 0 -- -- 51
2020-11-22 21:00:00 7.1 8 Sur 12 Sur 0 -- -- 59
2020-11-22 20:00:00 8.3 8 Sur 11 Sur 0 -- -- 60
2020-11-22 19:00:00 8.6 6 Sudoeste 11 Sudoeste 0 -- -- 61
2020-11-22 18:00:00 10.3 5 Sur 9 Sur 0 -- -- 56
2020-11-22 17:00:00 13.5 6 Este 12 Nordeste 0 -- -- 51
2020-11-22 16:00:00 15.2 5 Nordeste 9 Este 0 -- -- 41
2020-11-22 15:00:00 15.3 4 Nordeste 10 Nordeste 0 -- -- 38
2020-11-22 14:00:00 14.4 2 Nordeste 5 Nordeste 0 -- -- 42
2020-11-22 13:00:00 12.8 3 Norte 8 Nordeste 0 -- -- 49
2020-11-22 12:00:00 11.1 3 Nordeste 5 Este 0 -- -- 53
2020-11-22 11:00:00 9.4 0 Calma 3 Este 0 -- -- 60
2020-11-22 10:00:00 7.9 2 Sudeste 4 Sur 0 -- -- 56
2020-11-22 09:00:00 5 0 Calma 8 Sur 0 -- -- 64
2020-11-22 08:00:00 3.2 0 Calma 5 Sur 0 -- -- 67
2020-11-22 07:00:00 3.6 0 Calma 6 Sur 0 -- -- 67
2020-11-22 06:00:00 3.6 3 Sur 6 Sur 0 -- -- 67
2020-11-22 05:00:00 3.2 3 Sur 6 Oeste 0 -- -- 71
2020-11-22 04:00:00 3.6 2 Sur 5 Sur 0 -- -- 70
2020-11-22 03:00:00 3.6 3 Sur 6 Sur 0 -- -- 69
2020-11-22 02:00:00 5 5 Sur 8 Sur 0 -- -- 66
2020-11-22 01:00:00 5.1 0 Calma 4 Oeste 0 -- -- 67
2020-11-22 00:00:00 4.4 0 Calma 7 Sur 0 -- -- 72
2020-11-21 23:00:00 6.5 3 Sur 10 Sur 0 -- -- 64
2020-11-21 22:00:00 5.7 5 Sudoeste 8 Oeste 0 -- -- 70
2020-11-21 21:00:00 7.1 0 Calma 7 Sur 0 -- -- 63
2020-11-21 20:00:00 8.9 3 Noroeste 9 Sur 0 -- -- 58
2020-11-21 19:00:00 9.8 5 Sur 9 Sur 0 -- -- 55
2020-11-21 18:00:00 10.9 7 Sur 11 Sur 0 -- -- 49
2020-11-21 17:00:00 13.9 5 Sudoeste 10 Este 0 -- -- 43
2020-11-21 16:00:00 15.5 6 Este 10 Este 0 -- -- 35
2020-11-21 15:00:00 15.8 4 Nordeste 11 Nordeste 0 -- -- 37
2020-11-21 14:00:00 15 4 Norte 10 Nordeste 0 -- -- 32
2020-11-21 13:00:00 15.5 6 Nordeste 9 Nordeste 0 -- -- 41
2020-11-21 12:00:00 14.9 0 Calma 7 Oeste 0 -- -- 37
2020-11-21 11:00:00 11.4 0 Calma 4 Este 0 -- -- 53
2020-11-21 10:00:00 9.5 0 Calma 5 Sudeste 0 -- -- 43
2020-11-21 09:00:00 6.3 0 Calma 6 Oeste 0 -- -- 46
2020-11-21 08:00:00 2.7 0 Calma 4 Sudeste 0 -- -- 56
2020-11-21 07:00:00 5.9 3 Oeste 8 Oeste 0 -- -- 42
2020-11-21 06:00:00 5.2 7 Sur 10 Sur 0 -- -- 42
2020-11-21 05:00:00 4.5 5 Sudoeste 12 Oeste 0 -- -- 52
2020-11-21 04:00:00 4.1 3 Sur 5 Sur 0 -- -- 59
2020-11-21 03:00:00 4.8 0 Calma 5 Sur 0 -- -- 59
2020-11-21 02:00:00 3.1 0 Calma 8 Sur 0 -- -- 69
2020-11-21 01:00:00 2.8 3 Sur 10 Sur 0 -- -- 71
2020-11-21 00:00:00 4.6 4 Sur 7 Sur 0 -- -- 63
2020-11-20 23:00:00 3.3 4 Oeste 11 Sur 0 -- -- 70
2020-11-20 22:00:00 4.5 5 Oeste 10 Sur 0 -- -- 70
2020-11-20 21:00:00 5.4 6 Sur 10 Sur 0 -- -- 67
2020-11-20 20:00:00 6 4 Oeste 6 Oeste 0 -- -- 63
2020-11-20 19:00:00 8.2 3 Sur 12 Sur 0 -- -- 42
2020-11-20 18:00:00 9.5 10 Sur 12 Sur 0 -- -- 35
2020-11-20 17:00:00 12.5 5 Sudeste 9 Este 0 -- -- 33
2020-11-20 16:00:00 13.5 4 Este 10 Nordeste 0 -- -- 31
2020-11-20 15:00:00 14 5 Este 13 Este 0 -- -- 29
2020-11-20 14:00:00 13.8 8 Este 18 Este 0 -- -- 23
2020-11-20 13:00:00 13.5 9 Este 15 Este 0 -- -- 26
2020-11-20 12:00:00 13 8 Este 13 Este 0 -- -- 27
2020-11-20 11:00:00 11.4 4 Este 6 Nordeste 0 -- -- 40
2020-11-20 10:00:00 7.9 0 Calma 8 Sur 0 -- -- 73
2020-11-20 09:00:00 5.7 4 Sudoeste 8 Oeste 0 -- -- 82
2020-11-20 08:00:00 4.4 4 Oeste 9 Sur 0 -- -- 93
2020-11-20 07:00:00 4.9 8 Sur 10 Sur 0 -- -- 91
2020-11-20 06:00:00 4.9 2 Sudoeste 6 Noroeste 0 -- -- 93
2020-11-20 05:00:00 5.7 0 Calma 7 Sudeste 0 -- -- 96
2020-11-20 04:00:00 5.8 8 Sur 13 Sur 0 -- -- 96
2020-11-20 03:00:00 6.7 4 Sur 6 Sur 0 -- -- 94
2020-11-20 02:00:00 6.9 0 Calma 5 Sur 0 -- -- 94
2020-11-20 01:00:00 6.6 0 Calma 11 Sur 0 -- -- 93
2020-11-20 00:00:00 7.9 0 Calma 4 Sudeste 0 -- -- 92
2020-11-19 23:00:00 8.1 0 Calma 12 Este 0 -- -- 89
2020-11-19 22:00:00 10.3 4 Sudeste 8 Este 0 -- -- 86
2020-11-19 21:00:00 10 5 Sur 10 Sur 0 -- -- 86
2020-11-19 20:00:00 10.6 4 Sur 12 Sur 0 -- -- 78
2020-11-19 19:00:00 11.2 4 Sur 9 Sur 0 -- -- 73
2020-11-19 18:00:00 13.2 2 Oeste 12 Norte 0 -- -- 66
2020-11-19 17:00:00 15.3 8 Norte 10 Norte 0 -- -- 59
2020-11-19 16:00:00 17.4 2 Norte 7 Noroeste 0 -- -- 51
2020-11-19 15:00:00 17.3 3 Norte 10 Este 0 -- -- 55
2020-11-19 14:00:00 16.8 4 Nordeste 13 Este 0 -- -- 53
2020-11-19 13:00:00 16.5 6 Este 13 Nordeste 0 -- -- 52
2020-11-19 12:00:00 15.7 4 Este 9 Sudeste 0 -- -- 57
2020-11-19 11:00:00 14.9 5 Este 10 Sudeste 0 -- -- 58
2020-11-19 10:00:00 11 3 Sur 10 Sur 0 -- -- 67
2020-11-19 09:00:00 9.4 4 Sur 9 Sur 0 -- -- 68
2020-11-19 08:00:00 8.9 0 Calma 9 Sur 0 -- -- 67
2020-11-19 07:00:00 9.5 6 Sur 10 Sur 0 -- -- 70
2020-11-19 06:00:00 9.2 5 Sur 9 Sur 0 -- -- 68
2020-11-19 05:00:00 8.3 8 Oeste 13 Sur 0 -- -- 68
2020-11-19 04:00:00 9.5 3 Sudoeste 7 Sur 0 -- -- 63
2020-11-19 03:00:00 9.3 3 Sudoeste 11 Sur 0 -- -- 63
2020-11-19 02:00:00 8.8 3 Oeste 6 Sur 0 -- -- 65
2020-11-19 01:00:00 8.9 0 Calma 6 Sudeste 0 -- -- 66
2020-11-19 00:00:00 10 0 Calma 5 Sur 0 -- -- 62
2020-11-18 23:00:00 10.3 2 Sur 10 Sur 0 -- -- 63
2020-11-18 22:00:00 12.1 9 Sur 12 Sur 0 -- -- 55
2020-11-18 21:00:00 12.5 8 Sur 16 Sur 0 -- -- 56
2020-11-18 20:00:00 13 9 Sur 14 Sudoeste 0 -- -- 52
2020-11-18 19:00:00 13.7 6 Sur 15 Sudoeste 0 -- -- 50
2020-11-18 18:00:00 15.4 9 Sur 13 Sudoeste 0 -- -- 46
2020-11-18 17:00:00 18.2 9 Sudoeste 16 Sudoeste 0 -- -- 42
2020-11-18 16:00:00 19.9 12 Sudoeste 23 Oeste 0 -- -- 39
2020-11-18 15:00:00 20.3 12 Oeste 22 Oeste 0 -- -- 34
2020-11-18 14:00:00 19.5 3 Este 6 Nordeste 0 -- -- 41
2020-11-18 13:00:00 17.5 3 Nordeste 8 Nordeste 0 -- -- 52
2020-11-18 12:00:00 15.7 3 Norte 5 Nordeste 0 -- -- 53
2020-11-18 11:00:00 13.2 0 Calma 3 Este 0 -- -- 59
2020-11-18 10:00:00 10.6 0 Calma 3 Sudeste 0 -- -- 70
2020-11-18 09:00:00 9 0 Calma 6 Sur 0 -- -- 65
2020-11-18 08:00:00 7.7 2 Oeste 5 Sur 0 -- -- 67
2020-11-18 07:00:00 7.2 0 Calma 5 Sur 0 -- -- 72
2020-11-18 06:00:00 7.2 3 Sur 5 Sur 0 -- -- 71
2020-11-18 05:00:00 7.3 0 Calma 9 Sur 0 -- -- 71
2020-11-18 04:00:00 8.2 2 Sudeste 7 Sur 0 -- -- 68
2020-11-18 03:00:00 8 3 Sudeste 8 Sur 0 -- -- 69
2020-11-18 02:00:00 8.4 0 Calma 13 Sur 0 -- -- 70
2020-11-18 01:00:00 9.7 3 Sur 9 Oeste 0 -- -- 66
2020-11-18 00:00:00 9.4 5 Oeste 9 Oeste 0 -- -- 68
2020-11-17 23:00:00 9.7 3 Noroeste 13 Sudoeste 0 -- -- 67
2020-11-17 22:00:00 9.6 0 Calma 7 Nordeste 0 -- -- 68
2020-11-17 21:00:00 11.2 4 Sudeste 10 Sur 0 -- -- 62
2020-11-17 20:00:00 12.5 4 Sur 8 Sur 0 -- -- 57
2020-11-17 19:00:00 14 0 Calma 6 Noroeste 0 -- -- 53
2020-11-17 18:00:00 15.5 2 Sudoeste 6 Sur 0 -- -- 44
2020-11-17 17:00:00 18.7 0 Calma 19 Oeste 0 -- -- 39
2020-11-17 16:00:00 19.5 11 Oeste 19 Oeste 0 -- -- 36
2020-11-17 15:00:00 19.7 3 Noroeste 13 Noroeste 0 -- -- 37
2020-11-17 14:00:00 17.8 4 Nordeste 7 Este 0 -- -- 50
2020-11-17 13:00:00 15.9 0 Calma 5 Norte 0 -- -- 53
2020-11-17 12:00:00 13.4 2 Norte 5 Este 0 -- -- 55
2020-11-17 11:00:00 11.9 2 Este 5 Este 0 -- -- 67
2020-11-17 10:00:00 8.5 0 Calma 7 Oeste 0 -- -- 77
2020-11-17 09:00:00 6.7 3 Sur 6 Sur 0 -- -- 73
2020-11-17 08:00:00 5.8 0 Calma 4 Oeste 0 -- -- 72
2020-11-17 07:00:00 5.4 0 Calma 11 Sur 0 -- -- 77
2020-11-17 06:00:00 4.9 6 Sur 10 Sur 0 -- -- 81
2020-11-17 05:00:00 5.4 0 Calma 4 Sur 0 -- -- 85
2020-11-17 04:00:00 5.8 3 Oeste 10 Sur 0 -- -- 85
2020-11-17 03:00:00 6.3 5 Sur 7 Sur 0 -- -- 85
2020-11-17 02:00:00 6.9 3 Sudoeste 7 Sur 0 -- -- 86
2020-11-17 01:00:00 6.2 3 Sur 9 Sur 0 -- -- 90
2020-11-17 00:00:00 7.1 2 Sudoeste 8 Sur 0 -- -- 88
2020-11-16 23:00:00 7.6 3 Sudoeste 8 Sur 0 -- -- 87
2020-11-16 22:00:00 8 3 Sudoeste 6 Sur 0 -- -- 90
2020-11-16 21:00:00 8.7 0 Calma 12 Sur 0 -- -- 84
2020-11-16 20:00:00 10.3 8 Sur 10 Sur 0 -- -- 81
2020-11-16 19:00:00 10.9 5 Sudoeste 11 Oeste 0 -- -- 82
2020-11-16 18:00:00 12.5 5 Sudoeste 10 Oeste 0 -- -- 76
2020-11-16 17:00:00 15.2 0 Calma 8 Nordeste 0 -- -- 66
2020-11-16 16:00:00 15.8 6 Nordeste 12 Norte 0 -- -- 62
2020-11-16 15:00:00 16 3 Nordeste 13 Este 0 -- -- 59
2020-11-16 14:00:00 15.6 7 Nordeste 17 Nordeste 0 -- -- 61
2020-11-16 13:00:00 15.5 6 Nordeste 11 Sudeste 0 -- -- 57
2020-11-16 12:00:00 14.1 4 Nordeste 10 Este 0 -- -- 69
2020-11-16 11:00:00 12.4 4 Nordeste 10 Nordeste 0 -- -- 79
2020-11-16 10:00:00 10.8 3 Sudeste 5 Sudeste 0 -- -- 89
2020-11-16 09:00:00 9.7 4 Sudoeste 10 Oeste 0 -- -- 90
2020-11-16 08:00:00 9.4 4 Oeste 22 Oeste 0 -- -- 90
2020-11-16 07:00:00 10.3 7 Oeste 18 Oeste 0 -- -- 87
2020-11-16 06:00:00 11.1 8 Oeste 21 Oeste 0 -- -- 89
2020-11-16 05:00:00 10.9 16 Oeste 25 Oeste 0 -- -- 91
2020-11-16 04:00:00 11.2 9 Oeste 29 Oeste 0 -- -- 88
2020-11-16 03:00:00 12.1 15 Oeste 28 Oeste 0 -- -- 81
2020-11-16 02:00:00 12.2 8 Oeste 28 Oeste 0 -- -- 83
2020-11-16 01:00:00 12.5 16 Oeste 35 Oeste 0 -- -- 85
2020-11-16 00:00:00 12.6 21 Oeste 33 Oeste 0 -- -- 86
2020-11-15 23:00:00 13.2 9 Oeste 37 Oeste 0 -- -- 81
2020-11-15 22:00:00 14.2 17 Oeste 41 Sudoeste 0 -- -- 70
2020-11-15 21:00:00 14.2 24 Sudoeste 56 Sudoeste 0 -- -- 70
2020-11-15 20:00:00 14.3 32 Sudoeste 55 Sudoeste 0 -- -- 70
2020-11-15 19:00:00 14.5 28 Sudoeste 50 Oeste 0 -- -- 69
2020-11-15 18:00:00 14.6 16 Sudoeste 43 Sudoeste 0 -- -- 68
2020-11-15 17:00:00 14.5 17 Sudoeste 35 Sudoeste 0 -- -- 73
2020-11-15 16:00:00 15.2 19 Sudoeste 44 Sudoeste 0 -- -- 69
2020-11-15 15:00:00 15.6 25 Oeste 44 Sudoeste 0 -- -- 68
2020-11-15 14:00:00 16.6 27 Oeste 50 Sudoeste 0 -- -- 63
2020-11-15 13:00:00 16.2 23 Oeste 49 Sudoeste 0 -- -- 67
2020-11-15 12:00:00 16.8 23 Sudoeste 51 Sudoeste 0 -- -- 62
2020-11-15 11:00:00 16.7 24 Sudoeste 52 Sudoeste 0 -- -- 63
2020-11-15 10:00:00 15.2 17 Oeste 52 Sudoeste 0 -- -- 67
2020-11-15 09:00:00 14 19 Oeste 53 Oeste 0 -- -- 72
2020-11-15 08:00:00 10.3 5 Norte 36 Sudoeste 0 -- -- 90
2020-11-15 07:00:00 8.9 8 Este 18 Nordeste 0 -- -- 91
2020-11-15 06:00:00 7.3 8 Este 17 Este 0 -- -- 95
2020-11-15 05:00:00 7.2 3 Este 6 Nordeste 0 -- -- 95
2020-11-15 04:00:00 7.1 3 Oeste 12 Oeste 0 -- -- 96
2020-11-15 03:00:00 7.2 3 Sur 10 Nordeste 0 -- -- 96
2020-11-15 02:00:00 7.4 5 Sudeste 9 Este 0 -- -- 94
2020-11-15 01:00:00 7.5 5 Oeste 8 Este 0 -- -- 92
2020-11-15 00:00:00 8.5 2 Sudeste 15 Nordeste 0 -- -- 91
2020-11-14 23:00:00 8.7 5 Sudeste 10 Sur 0 -- -- 92
2020-11-14 22:00:00 9.4 4 Oeste 15 Sudoeste 0 -- -- 87
2020-11-14 21:00:00 10 13 Oeste 30 Oeste 0 -- -- 91
2020-11-14 20:00:00 10 4 Sur 11 Sur 0 -- -- 86
2020-11-14 19:00:00 11.3 4 Sur 8 Sur 0 -- -- 84
2020-11-14 18:00:00 12.1 3 Este 12 Oeste 0 -- -- 82
2020-11-14 17:00:00 13.6 5 Oeste 14 Oeste 0 -- -- 74
2020-11-14 16:00:00 14.1 2 Este 7 Este 0 -- -- 69
2020-11-14 15:00:00 14 4 Nordeste 6 Norte 0 -- -- 71
2020-11-14 14:00:00 13.7 3 Sudeste 6 Este 0 -- -- 71
2020-11-14 13:00:00 10.5 0 Calma 5 Noroeste 0 -- -- 82
2020-11-14 12:00:00 9.6 2 Noroeste 5 Noroeste 0 -- -- 84
2020-11-14 11:00:00 8.9 0 Calma 5 Oeste 0 -- -- 86
2020-11-14 10:00:00 7.7 0 Calma 4 Noroeste 0 -- -- 91
2020-11-14 09:00:00 7.2 0 Calma 5 Sur 0.6 -- -- 89
2020-11-14 08:00:00 7.1 4 Oeste 6 Sur 0.2 -- -- 90
2020-11-14 07:00:00 7 3 Oeste 6 Oeste 0 -- -- 89
2020-11-14 06:00:00 7.2 0 Calma 3 Sur 0 -- -- 86
2020-11-14 05:00:00 7.6 0 Calma 5 Este 0 -- -- 81
2020-11-14 04:00:00 8 2 Oeste 7 Sur 0 -- -- 81
2020-11-14 03:00:00 7.8 4 Sudoeste 9 Oeste 0 -- -- 83
2020-11-14 02:00:00 7.5 4 Oeste 5 Oeste 0 -- -- 85
2020-11-14 01:00:00 8.3 3 Sur 6 Sur 0 -- -- 80
2020-11-14 00:00:00 8.1 0 Calma 4 Noroeste 0 -- -- 82
2020-11-13 23:00:00 8.8 4 Sur 9 Sur 0 -- -- 78
2020-11-13 22:00:00 8.4 5 Oeste 9 Oeste 0 -- -- 80
2020-11-13 21:00:00 8.2 4 Oeste 12 Oeste 0 -- -- 79
2020-11-13 20:00:00 9.1 3 Oeste 9 Sur 0 -- -- 74
2020-11-13 19:00:00 9.5 4 Sudoeste 9 Oeste 0 -- -- 73
2020-11-13 18:00:00 10.4 5 Sur 6 Sur 0 -- -- 69
2020-11-13 17:00:00 11.2 0 Calma 13 Noroeste 0 -- -- 67
2020-11-13 16:00:00 11.3 6 Oeste 15 Noroeste 0 -- -- 68
2020-11-13 15:00:00 11 6 Este 15 Este 0 -- -- 66
2020-11-13 14:00:00 10.6 0 Calma 6 Este 0 -- -- 73
2020-11-13 13:00:00 10.8 4 Este 7 Este 0 -- -- 71
2020-11-13 12:00:00 9.9 0 Calma 5 Noroeste 0 -- -- 75
2020-11-13 11:00:00 8.9 2 Este 3 Este 0 -- -- 74
2020-11-13 10:00:00 7.1 0 Calma 8 Sur 0 -- -- 81
2020-11-13 09:00:00 5.7 3 Sur 8 Oeste 0 -- -- 81
2020-11-13 08:00:00 5.4 0 Calma 5 Oeste 0 -- -- 82
2020-11-13 07:00:00 6.1 4 Sur 7 Sur 0 -- -- 76
2020-11-13 06:00:00 5.6 3 Sudoeste 6 Sur 0 -- -- 75
2020-11-13 05:00:00 6.1 6 Sur 9 Sur 0 -- -- 73
2020-11-13 04:00:00 6.4 5 Sur 9 Sur 0 -- -- 74
2020-11-13 03:00:00 6.4 6 Sur 8 Sur 0 -- -- 76
2020-11-13 02:00:00 6.5 2 Sudoeste 5 Sudoeste 0 -- -- 74
2020-11-13 01:00:00 7.1 4 Sur 6 Sur 0 -- -- 67
2020-11-13 00:00:00 7.4 0 Calma 9 Oeste 0 -- -- 67
2020-11-12 23:00:00 6.8 4 Oeste 10 Oeste 0 -- -- 71
2020-11-12 22:00:00 7.3 0 Calma 6 Sudoeste 0 -- -- 70
2020-11-12 21:00:00 8.1 4 Oeste 12 Noroeste 0 -- -- 65
2020-11-12 20:00:00 8.4 3 Noroeste 7 Oeste 0 -- -- 67
2020-11-12 19:00:00 9.3 3 Norte 10 Nordeste 0 -- -- 63
2020-11-12 18:00:00 11.1 2 Noroeste 8 Nordeste 0 -- -- 59
2020-11-12 17:00:00 12.6 5 Este 16 Nordeste 0 -- -- 56
2020-11-12 16:00:00 13.9 0 Calma 5 Nordeste 0 -- -- 59
2020-11-12 15:00:00 13.2 0 Calma 8 Nordeste 0 -- -- 60
2020-11-12 14:00:00 12.9 4 Nordeste 9 Este 0 -- -- 66
2020-11-12 13:00:00 12.2 3 Norte 9 Nordeste 0 -- -- 62
2020-11-12 12:00:00 11 0 Calma 4 Nordeste 0 -- -- 66
2020-11-12 11:00:00 9.1 0 Calma 4 Norte 0 -- -- 77
2020-11-12 10:00:00 7.4 0 Calma 4 Sur 0 -- -- 81
2020-11-12 09:00:00 6.6 3 Oeste 8 Sur 0 -- -- 80
2020-11-12 08:00:00 5.9 4 Sudoeste 9 Sur 0 -- -- 84
2020-11-12 07:00:00 5.8 2 Sudoeste 10 Oeste 0 -- -- 86
2020-11-12 06:00:00 5.4 4 Oeste 8 Oeste 0 -- -- 90
2020-11-12 05:00:00 6.1 3 Sudeste 6 Oeste 0 -- -- 83
2020-11-12 04:00:00 7.3 6 Sur 10 Sur 0 -- -- 72
2020-11-12 03:00:00 6.3 0 Calma 9 Oeste 0 -- -- 83
2020-11-12 02:00:00 6.8 0 Calma 13 Oeste 0 -- -- 80
2020-11-12 01:00:00 6.9 0 Calma 0 Calma 0 -- -- 79
2020-11-12 00:00:00 6.5 0 Calma 0 Calma 0 -- -- 83
2020-11-11 23:00:00 6 0 Calma 0 Calma 0 -- -- 85
2020-11-11 22:00:00 7.1 0 Calma 0 Calma 0 -- -- 80
2020-11-11 21:00:00 8.2 0 Calma 0 Calma 0 -- -- 76
2020-11-11 20:00:00 8.5 0 Calma 0 Calma 0 -- -- 78
2020-11-11 19:00:00 9.7 0 Calma 0 Calma 0 -- -- 72
2020-11-11 18:00:00 11.3 0 Calma 9 Oeste 0 -- -- 68
2020-11-11 17:00:00 12.8 6 Oeste 20 Oeste 0 -- -- 61
2020-11-11 16:00:00 13.5 13 Oeste 18 Oeste 0 -- -- 55
2020-11-11 15:00:00 14.7 3 Nordeste 8 Nordeste 0 -- -- 50
2020-11-11 14:00:00 14.2 3 Norte 7 Noroeste 0 -- -- 52
2020-11-11 13:00:00 12.8 0 Calma 6 Norte 0 -- -- 57
2020-11-11 12:00:00 11.2 0 Calma 4 Nordeste 0 -- -- 66
2020-11-11 11:00:00 9 0 Calma 4 Nordeste 0 -- -- 75
2020-11-11 10:00:00 6.8 2 Oeste 7 Oeste 0 -- -- 82
2020-11-11 09:00:00 3.1 2 Noroeste 6 Sudeste 0 -- -- 94
2020-11-11 08:00:00 2 2 Sudeste 6 Este 0 -- -- 95
2020-11-11 07:00:00 1.3 5 Sudoeste 10 Noroeste 0 -- -- 96
2020-11-11 06:00:00 1.4 0 Calma 6 Sudeste 0 -- -- 96
2020-11-11 05:00:00 2.5 4 Oeste 8 Oeste 0 -- -- 95
2020-11-11 04:00:00 4.4 0 Calma 7 Sur 0 -- -- 96
2020-11-11 03:00:00 4.9 0 Calma 7 Sudoeste 0 -- -- 96
2020-11-11 02:00:00 4.5 4 Sur 8 Sur 0 -- -- 96
2020-11-11 01:00:00 5.6 4 Sur 12 Sur 0 -- -- 92
2020-11-11 00:00:00 5.5 0 Calma 6 Sur 0 -- -- 93
2020-11-10 23:00:00 5.7 0 Calma 5 Sur 0 -- -- 92
2020-11-10 22:00:00 6.8 3 Sudoeste 10 Sur 0 -- -- 87
2020-11-10 21:00:00 7.6 0 Calma 8 Sur 0 -- -- 89
2020-11-10 20:00:00 8.9 3 Sur 8 Este 0 -- -- 82
2020-11-10 19:00:00 9.7 6 Sudeste 12 Sudeste 0 -- -- 84
2020-11-10 18:00:00 10.6 0 Calma 9 Sur 0 -- -- 71
2020-11-10 17:00:00 12.5 3 Sur 10 Nordeste 0 -- -- 63
2020-11-10 16:00:00 13.4 6 Nordeste 11 Nordeste 0 -- -- 54
2020-11-10 15:00:00 13.6 2 Noroeste 12 Nordeste 0 -- -- 55
2020-11-10 14:00:00 13.2 6 Nordeste 13 Este 0 -- -- 53
2020-11-10 13:00:00 12.4 6 Nordeste 9 Este 0 -- -- 65
2020-11-10 12:00:00 10.7 0 Calma 8 Norte 0 -- -- 78
2020-11-10 11:00:00 9.2 2 Norte 5 Este 0 -- -- 82
2020-11-10 10:00:00 7.1 0 Calma 3 Norte 0 -- -- 86
2020-11-10 09:00:00 5.7 0 Calma 7 Sur 0 -- -- 89
2020-11-10 08:00:00 3.8 3 Oeste 10 Sur 0 -- -- 92
2020-11-10 07:00:00 4 2 Sudoeste 9 Sur 0 -- -- 90
2020-11-10 06:00:00 5 5 Sudoeste 13 Sur 0 -- -- 87
2020-11-10 05:00:00 5.9 11 Sur 13 Sur 0 -- -- 84
2020-11-10 04:00:00 6.1 0 Calma 5 Sudeste 0 -- -- 90
2020-11-10 03:00:00 6.2 0 Calma 9 Sur 0 -- -- 89
2020-11-10 02:00:00 5.8 0 Calma 11 Sur 0 -- -- 89
2020-11-10 01:00:00 6.2 8 Sur 11 Sur 0 -- -- 87
2020-11-10 00:00:00 6.1 6 Sur 10 Sur 0 -- -- 85
2020-11-09 23:00:00 6.9 7 Sur 9 Sur 0 -- -- 86
2020-11-09 22:00:00 7.6 6 Sur 9 Sur 0 -- -- 87
2020-11-09 21:00:00 8.2 2 Noroeste 10 Sur 0 -- -- 85
2020-11-09 20:00:00 8.7 5 Oeste 7 Oeste 0 -- -- 83
2020-11-09 19:00:00 9.1 3 Sudoeste 13 Oeste 0 -- -- 82
2020-11-09 18:00:00 9.8 8 Oeste 18 Oeste 0 -- -- 77
2020-11-09 17:00:00 11.4 7 Oeste 21 Noroeste 0 -- -- 70
2020-11-09 16:00:00 12.5 12 Noroeste 24 Oeste 0 -- -- 65
2020-11-09 15:00:00 12.9 13 Oeste 24 Oeste 0 -- -- 63
2020-11-09 14:00:00 12.8 14 Oeste 22 Oeste 0 -- -- 62
2020-11-09 13:00:00 12.4 8 Oeste 14 Oeste 0 -- -- 65
2020-11-09 12:00:00 12.5 3 Sur 11 Nordeste 0 -- -- 68
2020-11-09 11:00:00 10.8 8 Nordeste 13 Nordeste 0.2 -- -- 78
2020-11-09 10:00:00 9.7 2 Este 8 Sudoeste 0 -- -- 83
2020-11-09 09:00:00 6.8 3 Oeste 9 Sudoeste 0 -- -- 89
2020-11-09 08:00:00 6.4 7 Sur 12 Sudoeste 0 -- -- 87
2020-11-09 07:00:00 5.7 3 Sudoeste 12 Sur 0 -- -- 90
2020-11-09 06:00:00 6.7 9 Sur 12 Sur 0 -- -- 86
2020-11-09 05:00:00 7.8 4 Sur 8 Sur 0 -- -- 85
2020-11-09 04:00:00 8.6 2 Sudeste 12 Sudoeste 0 -- -- 84
2020-11-09 03:00:00 9.3 2 Norte 8 Oeste 0 -- -- 80
2020-11-09 02:00:00 9.7 0 Calma 15 Nordeste 0 -- -- 75
2020-11-09 01:00:00 9.8 8 Noroeste 48 Sudeste 1 -- -- 79
2020-11-09 00:00:00 9.7 17 Sur 51 Sudeste 0 -- -- 84
2020-11-08 23:00:00 10.1 15 Sur 54 Sudeste 0 -- -- 79
2020-11-08 22:00:00 10 30 Sudeste 54 Sur 0 -- -- 80
2020-11-08 21:00:00 9.8 29 Sur 49 Sur 0.4 -- -- 82
2020-11-08 20:00:00 9.9 10 Sur 33 Sur 0 -- -- 83
2020-11-08 19:00:00 9.7 7 Este 40 Sudeste 0 -- -- 83
2020-11-08 18:00:00 9.7 18 Sudeste 42 Sudeste 0 -- -- 81
2020-11-08 17:00:00 10.5 22 Sur 49 Sur 0 -- -- 76
2020-11-08 16:00:00 11.5 23 Sudeste 42 Sur 0 -- -- 73
2020-11-08 15:00:00 11.9 21 Sudeste 44 Sudeste 0 -- -- 72
2020-11-08 14:00:00 12.3 18 Sudeste 36 Sudeste 0 -- -- 69
2020-11-08 13:00:00 11.2 24 Sudeste 55 Sudeste 0 -- -- 72
2020-11-08 12:00:00 10.5 36 Sudeste 60 Sudeste 0 -- -- 74
2020-11-08 11:00:00 9.8 19 Sur 61 Sudeste 0 -- -- 75
2020-11-08 10:00:00 9.4 25 Sur 48 Sur 0 -- -- 75
2020-11-08 09:00:00 9.1 15 Sur 54 Sudeste 0 -- -- 80
2020-11-08 08:00:00 9.1 17 Sur 39 Este 0 -- -- 79
2020-11-08 07:00:00 8.9 16 Este 29 Este 0 -- -- 83
2020-11-08 06:00:00 9 10 Sudeste 37 Sudeste 0 -- -- 81
2020-11-08 05:00:00 8.4 18 Sur 39 Sur 0 -- -- 82
2020-11-08 04:00:00 7.9 15 Oeste 53 Sudeste 0 -- -- 82
2020-11-08 03:00:00 7 8 Oeste 42 Sur 0 -- -- 82
2020-11-08 02:00:00 7.2 9 Oeste 18 Oeste 0 -- -- 82
2020-11-08 01:00:00 6.2 5 Oeste 10 Sur 0 -- -- 85
2020-11-08 00:00:00 6.4 3 Oeste 8 Sur 0 -- -- 84
2020-11-07 23:00:00 6.3 3 Noroeste 7 Norte 0 -- -- 83
2020-11-07 22:00:00 6.8 3 Nordeste 9 Este 0 -- -- 83
2020-11-07 21:00:00 7 3 Oeste 11 Este 0 -- -- 84
2020-11-07 20:00:00 7.7 4 Nordeste 13 Sudeste 0 -- -- 84
2020-11-07 19:00:00 8.4 4 Sudoeste 23 Norte 0 -- -- 83
2020-11-07 18:00:00 9.9 12 Oeste 25 Sudoeste 0 -- -- 79
2020-11-07 17:00:00 11.8 12 Sudoeste 31 Oeste 0 -- -- 69
2020-11-07 16:00:00 11.9 23 Oeste 37 Oeste 0 -- -- 68
2020-11-07 15:00:00 11.9 15 Oeste 33 Oeste 0 -- -- 71
2020-11-07 14:00:00 12.4 19 Oeste 28 Oeste 0 -- -- 71
2020-11-07 13:00:00 12.1 13 Oeste 26 Oeste 0 -- -- 71
2020-11-07 12:00:00 9.9 19 Oeste 28 Oeste 0.2 -- -- 86
2020-11-07 11:00:00 9.3 10 Oeste 17 Oeste 0 -- -- 89
2020-11-07 10:00:00 9.4 4 Nordeste 6 Norte 0 -- -- 88
2020-11-07 09:00:00 8.7 3 Este 9 Noroeste 0 -- -- 89
2020-11-07 08:00:00 8.7 6 Oeste 14 Sur 0.2 -- -- 85
2020-11-07 07:00:00 9.3 10 Sur 17 Sudoeste 0 -- -- 81
2020-11-07 06:00:00 9.7 17 Sudoeste 49 Sudoeste 0 -- -- 78
2020-11-07 05:00:00 9.2 9 Norte 41 Sudeste 0.8 -- -- 80
2020-11-07 04:00:00 10 29 Sur 57 Sur 0.2 -- -- 82
2020-11-07 03:00:00 10.4 31 Sudeste 73 Sur 0 -- -- 80
2020-11-07 02:00:00 10.2 35 Sudeste 54 Sudeste 0 -- -- 82
2020-11-07 01:00:00 10.3 18 Sudeste 59 Sudeste 2.2 -- -- 83
2020-11-07 00:00:00 11.1 39 Sudeste 68 Sudeste 0.6 -- -- 79
2020-11-06 23:00:00 11.6 27 Sur 63 Sur 2.2 -- -- 77
2020-11-06 22:00:00 12.1 26 Sudeste 64 Sudeste 0.4 -- -- 78
2020-11-06 21:00:00 12.5 35 Sudeste 63 Sudeste 0 -- -- 76
2020-11-06 20:00:00 12 26 Sudeste 69 Sudeste 0.2 -- -- 80
2020-11-06 19:00:00 11.6 38 Sudeste 65 Sudeste 6.2 -- -- 81
2020-11-06 18:00:00 14 21 Sudeste 45 Sudeste 0 -- -- 75
2020-11-06 17:00:00 14 27 Sudeste 53 Este 0 -- -- 75
2020-11-06 16:00:00 14.3 29 Sudeste 53 Sudeste 0 -- -- 74
2020-11-06 15:00:00 14.2 29 Sudeste 51 Sudeste 0 -- -- 73
2020-11-06 14:00:00 13.5 18 Sudeste 45 Sudeste 0.2 -- -- 78
2020-11-06 13:00:00 13.4 34 Sudeste 62 Sudeste 0 -- -- 76
2020-11-06 12:00:00 13 37 Sudeste 64 Sudeste 0 -- -- 78
2020-11-06 11:00:00 13.2 34 Sudeste 63 Este 0 -- -- 75
2020-11-06 10:00:00 11.7 11 Este 31 Este 0 -- -- 80
2020-11-06 09:00:00 9.4 12 Este 29 Este 0 -- -- 93
2020-11-06 08:00:00 8.8 12 Este 20 Este 0.4 -- -- 90
2020-11-06 07:00:00 9.2 7 Este 24 Este 0.6 -- -- 90
2020-11-06 06:00:00 9.3 5 Este 37 Este 0.4 -- -- 86
2020-11-06 05:00:00 10.6 20 Sudeste 45 Sudeste 0 -- -- 77
2020-11-06 04:00:00 10.2 37 Sudeste 68 Sudeste 0.2 -- -- 81
2020-11-06 03:00:00 10.2 23 Sudeste 33 Sudeste 0.2 -- -- 84
2020-11-06 02:00:00 9.6 15 Nordeste 30 Este 0 -- -- 92
2020-11-06 01:00:00 10.1 15 Este 43 Sudeste 0 -- -- 86
2020-11-06 00:00:00 10.5 30 Sudeste 45 Sudeste 0 -- -- 81
2020-11-05 23:00:00 9.8 24 Sudeste 39 Este 0 -- -- 85
2020-11-05 22:00:00 8 5 Oeste 25 Sudeste 0.2 -- -- 91
2020-11-05 21:00:00 7.7 16 Este 34 Sudeste 0.6 -- -- 90
2020-11-05 20:00:00 7.2 4 Oeste 36 Sudoeste 2.6 -- -- 91
2020-11-05 19:00:00 8.1 20 Sudeste 45 Sudeste 4.4 -- -- 85
2020-11-05 18:00:00 9.7 27 Este 42 Este 0.2 -- -- 88
2020-11-05 17:00:00 9.7 21 Este 34 Este 1 -- -- 86
2020-11-05 16:00:00 9.9 24 Este 41 Este 1.6 -- -- 88
2020-11-05 15:00:00 9.5 17 Nordeste 34 Nordeste 0.2 -- -- 92
2020-11-05 14:00:00 9.5 15 Nordeste 33 Este 1.2 -- -- 91
2020-11-05 13:00:00 9.5 15 Nordeste 44 Nordeste 0.4 -- -- 90
2020-11-05 12:00:00 8.6 24 Nordeste 46 Nordeste 1.6 -- -- 94
2020-11-05 11:00:00 8.5 20 Nordeste 47 Nordeste 1.2 -- -- 93
2020-11-05 10:00:00 9.2 23 Este 63 Este 1.4 -- -- 86
2020-11-05 09:00:00 8 23 Este 44 Sudeste 4 -- -- 90
2020-11-05 08:00:00 8 30 Sudeste 48 Sudeste 7 -- -- 88
2020-11-05 07:00:00 8 20 Este 46 Este 1.2 -- -- 89
2020-11-05 06:00:00 8.3 24 Este 44 Nordeste 0.4 -- -- 88
2020-11-05 05:00:00 8.3 22 Este 49 Este 1.4 -- -- 90
2020-11-05 04:00:00 7.5 28 Este 46 Este 0 -- -- 95
2020-11-05 03:00:00 7.3 21 Este 35 Este 1 -- -- 97
2020-11-05 02:00:00 7.2 13 Este 42 Sudeste 2 -- -- 94
2020-11-05 01:00:00 7.1 16 Este 39 Este 0.6 -- -- 96
2020-11-05 00:00:00 7.1 13 Este 45 Sudeste 0.2 -- -- 93
2020-11-04 23:00:00 6.8 34 Sudeste 52 Este 0 -- -- 96
2020-11-04 22:00:00 6.5 12 Este 28 Este 0.8 -- -- 97
2020-11-04 21:00:00 6.3 14 Este 26 Este 0.2 -- -- 97
2020-11-04 20:00:00 5.7 11 Este 23 Este 0 -- -- 97
2020-11-04 19:00:00 5.5 6 Nordeste 17 Este 0.2 -- -- 97
2020-11-04 18:00:00 5.2 9 Este 17 Este 0.2 -- -- 97
2020-11-04 17:00:00 5 9 Este 15 Este 0.2 -- -- 96
2020-11-04 16:00:00 4.6 6 Este 15 Sudeste 2 -- -- 96
2020-11-04 15:00:00 4.1 5 Este 14 Este 1.8 -- -- 94
2020-11-04 14:00:00 3.8 4 Sudeste 12 Sudeste 3 -- -- 94
2020-11-04 13:00:00 4 0 Calma 8 Este 0.4 -- -- 96
2020-11-04 12:00:00 3.9 5 Este 12 Este 0.2 -- -- 97
2020-11-04 11:00:00 3.7 7 Este 12 Este 0.8 -- -- 98
2020-11-04 10:00:00 3.6 5 Nordeste 14 Nordeste 0.2 -- -- 98
2020-11-04 09:00:00 3.8 7 Este 12 Nordeste 0.2 -- -- 98
2020-11-04 08:00:00 4 6 Este 13 Este 0.2 -- -- 98
2020-11-04 07:00:00 4.3 8 Este 12 Nordeste 0.2 -- -- 98
2020-11-04 06:00:00 4.8 6 Este 13 Este 0.2 -- -- 97
2020-11-04 05:00:00 5.1 9 Este 13 Este 0 -- -- 97
2020-11-04 04:00:00 5.6 4 Nordeste 6 Nordeste 0 -- -- 97
2020-11-04 03:00:00 5.6 0 Calma 9 Nordeste -- -- -- 96
2020-11-04 02:00:00 5.8 6 Nordeste 11 Nordeste 0 -- -- 95
2020-11-04 01:00:00 6.6 5 Nordeste 9 Nordeste 0 -- -- 90
2020-11-04 00:00:00 7 5 Este 7 Este 0 -- -- 87
2020-11-03 23:00:00 7.1 3 Este 13 Sudeste 0 -- -- 86
2020-11-03 22:00:00 7.4 8 Sudeste 14 Sudeste 0 -- -- 86
2020-11-03 21:00:00 7.5 10 Sudeste 21 Nordeste 0 -- -- 88
2020-11-03 20:00:00 8.6 5 Norte 10 Sudeste 0 -- -- 88
2020-11-03 19:00:00 8.5 6 Sudeste 13 Sudeste 0 -- -- 88
2020-11-03 18:00:00 8.3 8 Sudeste 19 Nordeste 0 -- -- 90
2020-11-03 17:00:00 8.4 10 Nordeste 17 Nordeste 0 -- -- 92
2020-11-03 16:00:00 9.6 6 Sudeste 12 Este 0 -- -- 89
2020-11-03 15:00:00 9.7 8 Este 14 Este 0 -- -- 89
2020-11-03 14:00:00 9.8 9 Nordeste 17 Nordeste 0 -- -- 89
2020-11-03 13:00:00 9.1 6 Nordeste 10 Nordeste 0 -- -- 94
2020-11-03 12:00:00 9.8 3 Nordeste 6 Nordeste 0 -- -- 91
2020-11-03 11:00:00 9.8 0 Calma 7 Este 0 -- -- 89
2020-11-03 10:00:00 9.4 3 Este 5 Este 0 -- -- 89
2020-11-03 09:00:00 8.8 4 Norte 17 Oeste 0 -- -- 91
2020-11-03 08:00:00 9.6 6 Oeste 19 Oeste 0 -- -- 89
2020-11-03 07:00:00 9 15 Oeste 26 Oeste 0 -- -- 91
2020-11-03 06:00:00 11.5 9 Oeste 17 Oeste 0 -- -- 91
2020-11-03 05:00:00 11.9 3 Noroeste 6 Sudoeste 0 -- -- 89
2020-11-03 04:00:00 11.2 3 Sudoeste 8 Noroeste 0 -- -- 90
2020-11-03 03:00:00 11.9 0 Calma 8 Oeste 0 -- -- 88
2020-11-03 02:00:00 12.5 4 Sur 6 Sur 0 -- -- 85
2020-11-03 01:00:00 11.2 0 Calma 5 Sudoeste 0 -- -- 87
2020-11-03 00:00:00 10.8 2 Oeste 7 Norte 0 -- -- 89
2020-11-02 23:00:00 11.7 3 Sudeste 6 Sur 0 -- -- 84
2020-11-02 22:00:00 12.1 3 Sudoeste 7 Sur 0 -- -- 84
2020-11-02 21:00:00 12.3 3 Sur 6 Sur 0 -- -- 84
2020-11-02 20:00:00 12.9 5 Sudoeste 9 Oeste 0 -- -- 84
2020-11-02 19:00:00 13.5 3 Oeste 7 Noroeste 0 -- -- 82
2020-11-02 18:00:00 14.4 0 Calma 3 Sudoeste 0 -- -- 76
2020-11-02 17:00:00 15 0 Calma 4 Nordeste 0 -- -- 73
2020-11-02 16:00:00 15.4 0 Calma 6 Nordeste 0 -- -- 71
2020-11-02 15:00:00 15.2 2 Nordeste 6 Sudeste 0 -- -- 73
2020-11-02 14:00:00 15.2 4 Este 8 Este 0 -- -- 73
2020-11-02 13:00:00 14.4 2 Nordeste 6 Sudeste 0 -- -- 77
2020-11-02 12:00:00 13.2 0 Calma 5 Nordeste 0 -- -- 82
2020-11-02 11:00:00 11.6 0 Calma 5 Norte 0 -- -- 87
2020-11-02 10:00:00 11 0 Calma 3 Oeste 0 -- -- 85
2020-11-02 09:00:00 10 0 Calma 5 Oeste 0 -- -- 89
2020-11-02 08:00:00 9.7 2 Sudoeste 5 Noroeste 0 -- -- 89
2020-11-02 07:00:00 9.6 3 Norte 5 Norte 0 -- -- 87
2020-11-02 06:00:00 10.4 0 Calma 4 Oeste 0 -- -- 84
2020-11-02 05:00:00 11.2 0 Calma 8 Sur 0 -- -- 80
2020-11-02 04:00:00 11.1 2 Oeste 6 Sur 0 -- -- 81
2020-11-02 03:00:00 11.4 0 Calma 3 Sudeste 0 -- -- 79
2020-11-02 02:00:00 12 6 Sur 9 Sur 0 -- -- 76
2020-11-02 01:00:00 11.3 2 Oeste 2 Oeste 0 -- -- 79
2020-11-02 00:00:00 11.7 0 Calma 9 Sur 0 -- -- 76